createdAt,value
2023-02-24T00:00:56.733Z,8.00
2023-02-24T00:03:24.694Z,8.00
2023-02-24T00:05:53.798Z,8.00
2023-02-24T00:08:22.017Z,8.00
2023-02-24T00:10:53.672Z,7.90
2023-02-24T00:13:25.367Z,7.90
2023-02-24T00:16:02.834Z,7.90
2023-02-24T00:18:37.086Z,8.00
2023-02-24T00:21:08.585Z,8.00
2023-02-24T00:23:42.430Z,8.00
2023-02-24T00:26:12.793Z,8.00
2023-02-24T00:28:42.307Z,7.90
2023-02-24T00:31:14.508Z,7.90
2023-02-24T00:33:43.979Z,7.90
2023-02-24T00:36:14.613Z,7.90
2023-02-24T00:38:46.784Z,7.90
2023-02-24T00:41:22.638Z,8.00
2023-02-24T00:43:52.326Z,7.90
2023-02-24T00:46:25.973Z,7.90
2023-02-24T00:48:56.049Z,7.80
2023-02-24T00:51:29.550Z,7.80
2023-02-24T00:54:00.788Z,7.80
2023-02-24T00:56:31.562Z,7.80
2023-02-24T00:59:01.208Z,7.70
2023-02-24T01:01:33.351Z,7.80
2023-02-24T01:04:05.771Z,7.80
2023-02-24T01:06:35.211Z,7.80
2023-02-24T01:09:08.325Z,7.90
2023-02-24T01:11:55.048Z,7.90
2023-02-24T01:14:26.796Z,7.90
2023-02-24T01:16:59.039Z,7.80
2023-02-24T01:19:36.209Z,7.80
2023-02-24T01:22:07.152Z,7.80
2023-02-24T01:24:47.941Z,7.70
2023-02-24T01:27:19.115Z,7.70
2023-02-24T01:29:47.847Z,7.70
2023-02-24T01:32:21.653Z,7.60
2023-02-24T01:34:53.617Z,7.60
2023-02-24T01:37:22.415Z,7.60
2023-02-24T01:39:51.511Z,7.60
2023-02-24T01:42:22.663Z,7.50
2023-02-24T01:45:17.252Z,7.40
2023-02-24T01:47:48.711Z,7.30
2023-02-24T01:50:21.736Z,7.20
2023-02-24T01:52:56.430Z,7.10
2023-02-24T01:55:33.601Z,7.00
2023-02-24T01:58:05.893Z,6.90
2023-02-24T02:00:38.416Z,6.90
2023-02-24T02:03:20.770Z,6.90
2023-02-24T02:05:49.447Z,6.90
2023-02-24T02:08:24.932Z,6.90
2023-02-24T02:10:59.026Z,6.80
2023-02-24T02:13:35.952Z,6.80
2023-02-24T02:16:21.730Z,6.70
2023-02-24T02:19:02.447Z,6.80
2023-02-24T02:21:58.713Z,6.90
2023-02-24T02:24:37.185Z,6.80
2023-02-24T02:27:32.183Z,6.80
2023-02-24T02:30:28.847Z,6.80
2023-02-24T02:33:34.297Z,6.80
2023-02-24T02:36:14.951Z,6.90
2023-02-24T02:38:54.193Z,7.00
2023-02-24T02:41:28.582Z,7.00
2023-02-24T02:44:04.348Z,7.00
2023-02-24T02:46:36.338Z,7.00
2023-02-24T02:49:13.334Z,7.00
2023-02-24T02:51:48.336Z,7.00
2023-02-24T02:54:21.487Z,6.90
2023-02-24T02:56:59.976Z,6.80
2023-02-24T02:59:31.902Z,6.80
2023-02-24T03:02:11.924Z,6.70
2023-02-24T03:04:43.564Z,6.70
2023-02-24T03:07:15.688Z,6.70
2023-02-24T03:09:49.699Z,6.70
2023-02-24T03:12:21.770Z,6.70
2023-02-24T03:14:59.269Z,6.70
2023-02-24T03:17:31.307Z,6.70
2023-02-24T03:20:15.187Z,6.70
2023-02-24T03:22:52.533Z,6.70
2023-02-24T03:25:27.607Z,6.70
2023-02-24T03:28:03.587Z,6.60
2023-02-24T03:30:41.200Z,6.60
2023-02-24T03:33:21.805Z,6.70
2023-02-24T03:35:53.865Z,6.80
2023-02-24T03:38:24.617Z,6.70
2023-02-24T03:40:54.215Z,6.70
2023-02-24T03:43:26.698Z,6.80
2023-02-24T03:45:58.585Z,6.70
2023-02-24T03:48:28.591Z,6.70
2023-02-24T03:51:02.554Z,6.80
2023-02-24T03:53:43.650Z,6.90
2023-02-24T03:56:27.002Z,6.90
2023-02-24T03:59:13.070Z,6.90
2023-02-24T04:01:49.760Z,6.90
2023-02-24T04:04:27.617Z,6.80
2023-02-24T04:07:02.114Z,6.90
2023-02-24T04:09:41.111Z,6.80
2023-02-24T04:12:19.673Z,6.80
2023-02-24T04:14:57.969Z,6.80
2023-02-24T04:17:32.398Z,6.70
2023-02-24T04:20:12.867Z,6.70
2023-02-24T04:22:42.430Z,6.60
2023-02-24T04:25:13.885Z,6.60
2023-02-24T04:27:44.410Z,6.60
2023-02-24T04:30:14.508Z,6.60
2023-02-24T04:32:44.349Z,6.50
2023-02-24T04:35:15.899Z,6.60
2023-02-24T04:37:45.103Z,6.60
2023-02-24T04:40:18.641Z,6.60
2023-02-24T04:42:50.643Z,6.60
2023-02-24T04:45:21.817Z,6.50
2023-02-24T04:47:56.487Z,6.50
2023-02-24T04:50:26.552Z,6.50
2023-02-24T04:52:56.639Z,6.40
2023-02-24T04:55:36.200Z,6.40
2023-02-24T04:58:04.935Z,6.40
2023-02-24T05:00:36.466Z,6.60
2023-02-24T05:03:08.056Z,6.50
2023-02-24T05:05:36.390Z,6.50
2023-02-24T05:08:07.648Z,6.50
2023-02-24T05:10:41.421Z,6.40
2023-02-24T05:13:10.949Z,6.40
2023-02-24T05:15:42.017Z,6.50
2023-02-24T05:18:17.090Z,6.50
2023-02-24T05:21:10.716Z,6.50
2023-02-24T05:23:44.762Z,6.40
2023-02-24T05:26:17.288Z,6.40
2023-02-24T05:28:49.471Z,6.30
2023-02-24T05:31:20.585Z,6.30
2023-02-24T05:33:50.842Z,6.30
2023-02-24T05:36:20.587Z,6.30
2023-02-24T05:38:56.616Z,6.20
2023-02-24T05:41:32.762Z,6.20
2023-02-24T05:44:04.909Z,6.10
2023-02-24T05:46:42.454Z,6.20
2023-02-24T05:49:16.020Z,6.10
2023-02-24T05:51:55.033Z,6.10
2023-02-24T05:54:26.249Z,6.20
2023-02-24T05:56:57.636Z,6.30
2023-02-24T05:59:29.428Z,6.20
2023-02-24T06:01:59.963Z,6.40
2023-02-24T06:04:39.741Z,6.40
2023-02-24T06:07:19.515Z,6.40
2023-02-24T06:09:50.252Z,6.40
2023-02-24T06:12:21.029Z,6.50
2023-02-24T06:14:53.301Z,6.60
2023-02-24T06:17:24.532Z,6.50
2023-02-24T06:19:54.227Z,6.50
2023-02-24T06:22:24.892Z,6.50
2023-02-24T06:24:59.108Z,6.50
2023-02-24T06:27:29.218Z,6.50
2023-02-24T06:29:57.786Z,6.40
2023-02-24T06:32:27.291Z,6.40
2023-02-24T06:34:59.290Z,6.40
2023-02-24T06:37:28.382Z,6.40
2023-02-24T06:39:58.407Z,6.40
2023-02-24T06:42:27.942Z,6.50
2023-02-24T06:44:56.263Z,6.50
2023-02-24T06:47:24.416Z,6.50
2023-02-24T06:49:57.352Z,6.50
2023-02-24T06:52:31.024Z,6.50
2023-02-24T06:54:59.393Z,6.40
2023-02-24T06:57:32.972Z,6.40
2023-02-24T07:00:01.400Z,6.40
2023-02-24T07:02:39.765Z,6.40
2023-02-24T07:05:14.489Z,6.50
2023-02-24T07:07:47.707Z,6.50
2023-02-24T07:10:18.042Z,6.40
2023-02-24T07:12:48.036Z,6.30
2023-02-24T07:15:20.425Z,6.30
2023-02-24T07:17:50.888Z,6.30
2023-02-24T07:20:25.608Z,6.30
2023-02-24T07:22:54.160Z,6.40
2023-02-24T07:25:33.315Z,6.40
2023-02-24T07:28:03.414Z,6.40
2023-02-24T07:30:42.057Z,6.50
2023-02-24T07:33:10.651Z,6.40
2023-02-24T07:35:41.561Z,6.40
2023-02-24T07:38:10.112Z,6.40
2023-02-24T07:40:41.077Z,6.30
2023-02-24T07:43:11.102Z,6.20
2023-02-24T07:45:39.451Z,6.20
2023-02-24T07:48:07.874Z,6.20
2023-02-24T07:50:35.903Z,6.30
2023-02-24T07:53:05.322Z,6.30
2023-02-24T07:55:36.510Z,6.40
2023-02-24T07:58:06.164Z,6.40
2023-02-24T08:00:50.784Z,6.40
2023-02-24T08:03:18.916Z,6.50
2023-02-24T08:05:47.417Z,6.60
2023-02-24T08:08:21.106Z,6.50
2023-02-24T08:10:49.245Z,6.60
2023-02-24T08:13:19.256Z,6.50
2023-02-24T08:15:56.679Z,6.40
2023-02-24T08:18:24.796Z,6.40
2023-02-24T08:20:56.338Z,6.40
2023-02-24T08:23:25.738Z,6.40
2023-02-24T08:25:54.286Z,6.50
2023-02-24T08:28:26.785Z,6.40
2023-02-24T08:30:59.270Z,6.50
2023-02-24T08:33:30.647Z,6.60
2023-02-24T08:36:02.631Z,6.70
2023-02-24T08:38:42.370Z,6.90
2023-02-24T08:41:18.063Z,6.90
2023-02-24T08:43:47.613Z,7.10
2023-02-24T08:46:21.158Z,7.10
2023-02-24T08:48:55.639Z,7.00
2023-02-24T08:51:28.870Z,7.00
2023-02-24T08:53:59.215Z,7.20
2023-02-24T08:56:31.304Z,7.20
2023-02-24T08:59:05.765Z,7.40
2023-02-24T09:01:39.344Z,7.50
2023-02-24T09:04:09.864Z,7.60
2023-02-24T09:06:44.316Z,7.60
2023-02-24T09:09:21.080Z,7.70
2023-02-24T09:11:56.534Z,7.60
2023-02-24T09:14:28.952Z,7.70
2023-02-24T09:17:03.388Z,7.80
2023-02-24T09:19:56.965Z,7.90
2023-02-24T09:22:32.755Z,8.00
2023-02-24T09:25:20.844Z,7.80
2023-02-24T09:27:55.189Z,7.90
2023-02-24T09:30:39.153Z,8.00
2023-02-24T09:33:21.106Z,8.10
2023-02-24T09:35:52.992Z,8.20
2023-02-24T09:38:45.010Z,8.20
2023-02-24T09:41:32.237Z,8.30
2023-02-24T09:44:18.386Z,8.30
2023-02-24T09:46:54.956Z,8.40
2023-02-24T09:49:42.428Z,8.30
2023-02-24T09:52:18.680Z,8.40
2023-02-24T09:55:10.218Z,8.50
2023-02-24T09:58:13.298Z,8.60
2023-02-24T10:00:47.987Z,8.70
2023-02-24T10:03:41.698Z,8.60
2023-02-24T10:06:23.891Z,8.70
2023-02-24T10:08:56.824Z,8.60
2023-02-24T10:11:33.841Z,8.70
2023-02-24T10:14:06.109Z,8.80
2023-02-24T10:16:46.333Z,8.70
2023-02-24T10:19:25.433Z,8.70
2023-02-24T10:22:03.211Z,8.80
2023-02-24T10:24:38.456Z,8.90
2023-02-24T10:27:17.146Z,9.10
2023-02-24T10:30:05.013Z,9.40
2023-02-24T10:32:42.027Z,9.60
2023-02-24T10:35:17.988Z,9.90
2023-02-24T10:37:49.398Z,10.20
2023-02-24T10:40:26.596Z,10.40
2023-02-24T10:43:10.619Z,10.40
2023-02-24T10:45:45.577Z,10.50
2023-02-24T10:48:42.089Z,10.60
2023-02-24T10:51:20.758Z,10.80
2023-02-24T10:54:22.494Z,10.80
2023-02-24T10:57:07.687Z,10.90
2023-02-24T11:00:14.441Z,10.80
2023-02-24T11:03:08.505Z,10.60
2023-02-24T11:05:55.343Z,10.30
2023-02-24T11:08:40.005Z,10.10
2023-02-24T11:11:26.095Z,10.00
2023-02-24T11:14:12.371Z,9.90
2023-02-24T11:17:03.330Z,9.90
2023-02-24T11:19:32.997Z,9.80
2023-02-24T11:22:03.163Z,9.90
2023-02-24T11:24:31.511Z,9.90
2023-02-24T11:27:04.346Z,9.90
2023-02-24T11:29:49.670Z,10.00
2023-02-24T11:32:37.050Z,10.20
2023-02-24T11:35:14.003Z,10.20
2023-02-24T11:37:44.996Z,10.10
2023-02-24T11:40:23.214Z,10.10
2023-02-24T11:42:57.317Z,10.00
2023-02-24T11:45:33.495Z,10.30
2023-02-24T11:48:06.893Z,10.50
2023-02-24T11:50:43.889Z,10.50
2023-02-24T11:53:36.141Z,10.50
2023-02-24T11:56:08.941Z,10.30
2023-02-24T11:58:44.313Z,10.20
2023-02-24T12:01:18.734Z,10.20
2023-02-24T12:03:54.094Z,10.20
2023-02-24T12:06:31.186Z,10.10
2023-02-24T12:09:07.909Z,10.10
2023-02-24T12:11:46.001Z,10.10
2023-02-24T12:14:26.676Z,9.90
2023-02-24T12:17:03.416Z,9.90
2023-02-24T12:19:39.468Z,10.00
2023-02-24T12:22:15.265Z,10.10
2023-02-24T12:24:49.902Z,10.20
2023-02-24T12:27:29.139Z,10.10
2023-02-24T12:30:34.401Z,10.00
2023-02-24T12:33:16.222Z,10.00
2023-02-24T12:35:53.452Z,10.00
2023-02-24T12:38:38.775Z,9.80
2023-02-24T12:41:26.739Z,9.70
2023-02-24T12:44:02.284Z,9.80
2023-02-24T12:46:37.518Z,9.90
2023-02-24T12:49:21.297Z,9.90
2023-02-24T12:51:59.179Z,9.80
2023-02-24T12:54:39.726Z,9.70
2023-02-24T12:57:12.935Z,9.70
2023-02-24T12:59:42.813Z,9.50
2023-02-24T13:02:22.121Z,9.50
2023-02-24T13:05:00.278Z,9.40
2023-02-24T13:07:51.835Z,9.30
2023-02-24T13:10:29.670Z,9.40
2023-02-24T13:13:08.466Z,9.30
2023-02-24T13:15:36.641Z,9.30
2023-02-24T13:18:06.359Z,9.30
2023-02-24T13:20:40.029Z,9.10
2023-02-24T13:23:22.154Z,9.00
2023-02-24T13:25:55.720Z,8.90
2023-02-24T13:28:27.879Z,8.90
2023-02-24T13:31:02.389Z,8.90
2023-02-24T13:33:34.699Z,8.90
2023-02-24T13:36:15.671Z,8.90
2023-02-24T13:38:47.842Z,8.90
2023-02-24T13:41:40.656Z,9.00
2023-02-24T13:44:28.951Z,8.90
2023-02-24T13:47:30.492Z,8.80
2023-02-24T13:50:20.982Z,8.70
2023-02-24T13:53:08.793Z,8.60
2023-02-24T13:55:51.612Z,8.60
2023-02-24T13:58:32.179Z,8.60
2023-02-24T14:01:12.854Z,8.60
2023-02-24T14:03:43.787Z,8.70
2023-02-24T14:06:23.529Z,8.60
2023-02-24T14:08:56.941Z,8.60
2023-02-24T14:11:32.108Z,8.50
2023-02-24T14:14:01.219Z,8.50
2023-02-24T14:16:33.646Z,8.50
2023-02-24T14:19:03.670Z,8.50
2023-02-24T14:21:35.051Z,8.40
2023-02-24T14:24:05.352Z,8.40
2023-02-24T14:26:42.536Z,8.40
2023-02-24T14:29:18.489Z,8.40
2023-02-24T14:31:49.762Z,8.50
2023-02-24T14:34:21.224Z,8.50
2023-02-24T14:36:54.283Z,8.50
2023-02-24T14:39:24.289Z,8.40
2023-02-24T14:42:07.034Z,8.30
2023-02-24T14:44:36.024Z,8.30
2023-02-24T14:47:07.401Z,8.30
2023-02-24T14:49:36.972Z,8.20
2023-02-24T14:52:09.830Z,8.20
2023-02-24T14:54:44.687Z,8.30
2023-02-24T14:57:16.102Z,8.30
2023-02-24T14:59:48.592Z,8.30
2023-02-24T15:02:21.206Z,8.30
2023-02-24T15:04:49.757Z,8.20
2023-02-24T15:07:22.483Z,8.10
2023-02-24T15:09:52.476Z,8.10
2023-02-24T15:12:31.717Z,8.00
2023-02-24T15:15:05.214Z,7.90
2023-02-24T15:17:36.049Z,7.90
2023-02-24T15:20:05.362Z,7.80
2023-02-24T15:22:39.425Z,7.70
2023-02-24T15:25:20.351Z,7.70
2023-02-24T15:27:54.120Z,7.70
2023-02-24T15:30:34.522Z,7.60
2023-02-24T15:33:08.398Z,7.60
2023-02-24T15:35:40.566Z,7.60
2023-02-24T15:38:22.672Z,7.60
2023-02-24T15:40:54.226Z,7.50
2023-02-24T15:43:33.868Z,7.50
2023-02-24T15:46:02.234Z,7.50
2023-02-24T15:48:31.654Z,7.40
2023-02-24T15:51:06.375Z,7.40
2023-02-24T15:53:38.010Z,7.30
2023-02-24T15:56:07.040Z,7.20
2023-02-24T15:58:35.207Z,7.20
2023-02-24T16:01:03.604Z,7.10
2023-02-24T16:03:32.716Z,7.00
2023-02-24T16:06:01.750Z,6.80
2023-02-24T16:08:30.260Z,6.80
2023-02-24T16:11:01.883Z,6.70
2023-02-24T16:13:30.671Z,6.70
2023-02-24T16:16:00.758Z,6.60
2023-02-24T16:18:28.924Z,6.60
2023-02-24T16:20:57.342Z,6.60
2023-02-24T16:23:27.337Z,6.40
2023-02-24T16:25:59.466Z,6.20
2023-02-24T16:28:29.072Z,6.10
2023-02-24T16:30:57.131Z,6.10
2023-02-24T16:33:25.524Z,6.10
2023-02-24T16:35:54.127Z,6.00
2023-02-24T16:38:27.515Z,6.00
2023-02-24T16:40:56.298Z,6.00
2023-02-24T16:43:24.823Z,5.90
2023-02-24T16:45:56.576Z,5.70
2023-02-24T16:48:29.103Z,5.70
2023-02-24T16:50:57.502Z,5.60
2023-02-24T16:53:25.940Z,5.60
2023-02-24T16:55:56.705Z,5.60
2023-02-24T16:58:25.151Z,5.60
2023-02-24T17:00:59.038Z,5.60
2023-02-24T17:03:31.468Z,5.50
2023-02-24T17:05:59.740Z,5.50
2023-02-24T17:08:28.093Z,5.40
2023-02-24T17:10:57.298Z,5.50
2023-02-24T17:13:25.551Z,5.50
2023-02-24T17:15:57.294Z,5.30
2023-02-24T17:18:26.872Z,5.30
2023-02-24T17:20:55.781Z,5.30
2023-02-24T17:23:24.063Z,5.30
2023-02-24T17:25:55.029Z,5.30
2023-02-24T17:28:23.492Z,5.40
2023-02-24T17:30:51.974Z,5.30
2023-02-24T17:33:24.255Z,5.40
2023-02-24T17:35:52.496Z,5.50
2023-02-24T17:38:23.253Z,5.50
2023-02-24T17:40:51.705Z,5.50
2023-02-24T17:43:19.790Z,5.50
2023-02-24T17:45:48.501Z,5.40
2023-02-24T17:48:17.374Z,5.30
2023-02-24T17:50:49.226Z,5.30
2023-02-24T17:53:17.763Z,5.20
2023-02-24T17:56:01.513Z,5.20
2023-02-24T17:58:30.578Z,5.10
2023-02-24T18:00:59.007Z,5.10
2023-02-24T18:03:27.550Z,5.10
2023-02-24T18:06:08.468Z,5.10
2023-02-24T18:08:38.929Z,5.00
2023-02-24T18:11:09.975Z,4.90
2023-02-24T18:13:37.978Z,4.80
2023-02-24T18:16:11.389Z,4.90
2023-02-24T18:18:40.783Z,4.90
2023-02-24T18:21:10.426Z,4.90
2023-02-24T18:23:40.614Z,4.90
2023-02-24T18:26:11.400Z,5.00
2023-02-24T18:28:39.863Z,5.00
2023-02-24T18:31:15.940Z,4.90
2023-02-24T18:33:44.639Z,4.70
2023-02-24T18:36:21.421Z,4.80
2023-02-24T18:38:53.886Z,4.70
2023-02-24T18:41:24.094Z,4.70
2023-02-24T18:43:54.115Z,4.60
2023-02-24T18:46:23.834Z,4.60
2023-02-24T18:48:54.764Z,4.80
2023-02-24T18:51:26.351Z,4.80
2023-02-24T18:53:55.321Z,4.80
2023-02-24T18:56:25.666Z,4.90
2023-02-24T18:58:58.167Z,4.90
2023-02-24T19:01:28.376Z,4.90
2023-02-24T19:04:00.628Z,4.80
2023-02-24T19:06:33.376Z,4.80
2023-02-24T19:09:03.618Z,4.70
2023-02-24T19:11:32.064Z,4.60
2023-02-24T19:14:01.492Z,4.70
2023-02-24T19:16:30.622Z,4.70
2023-02-24T19:19:00.736Z,4.70
2023-02-24T19:21:32.541Z,4.80
2023-02-24T19:24:03.197Z,4.60
2023-02-24T19:26:31.683Z,4.60
2023-02-24T19:29:00.293Z,4.70
2023-02-24T19:31:30.721Z,4.70
2023-02-24T19:34:01.515Z,4.70
2023-02-24T19:36:32.864Z,4.70
2023-02-24T19:39:01.910Z,4.60
2023-02-24T19:41:30.264Z,4.60
2023-02-24T19:43:58.945Z,4.60
2023-02-24T19:46:27.394Z,4.70
2023-02-24T19:48:57.391Z,4.60
2023-02-24T19:51:28.684Z,4.60
2023-02-24T19:54:03.765Z,4.60
2023-02-24T19:56:34.061Z,4.50
2023-02-24T19:59:04.131Z,4.50
2023-02-24T20:01:32.962Z,4.60
2023-02-24T20:04:03.991Z,4.40
2023-02-24T20:06:35.654Z,4.50
2023-02-24T20:09:06.660Z,4.40
2023-02-24T20:11:36.917Z,4.40
2023-02-24T20:14:05.795Z,4.40
2023-02-24T20:16:34.984Z,4.30
2023-02-24T20:19:06.284Z,4.40
2023-02-24T20:21:35.020Z,4.50
2023-02-24T20:24:07.154Z,4.60
2023-02-24T20:26:36.200Z,4.50
2023-02-24T20:29:12.762Z,4.60
2023-02-24T20:31:42.449Z,4.60
2023-02-24T20:34:11.305Z,4.60
2023-02-24T20:36:46.953Z,4.40
2023-02-24T20:39:16.746Z,4.40
2023-02-24T20:41:45.418Z,4.30
2023-02-24T20:44:14.032Z,4.30
2023-02-24T20:46:42.362Z,4.10
2023-02-24T20:49:14.685Z,4.10
2023-02-24T20:51:43.727Z,4.10
2023-02-24T20:54:14.283Z,4.00
2023-02-24T20:56:46.343Z,4.00
2023-02-24T20:59:16.977Z,4.00
2023-02-24T21:01:48.588Z,3.90
2023-02-24T21:04:19.607Z,3.90
2023-02-24T21:06:49.089Z,4.00
2023-02-24T21:09:19.536Z,4.00
2023-02-24T21:11:49.361Z,3.90
2023-02-24T21:14:22.222Z,3.90
2023-02-24T21:16:50.870Z,3.90
2023-02-24T21:19:20.328Z,4.00
2023-02-24T21:21:49.163Z,4.00
2023-02-24T21:24:18.006Z,4.00
2023-02-24T21:26:47.327Z,4.10
2023-02-24T21:29:16.976Z,4.10
2023-02-24T21:31:45.467Z,4.30
2023-02-24T21:34:19.789Z,4.30
2023-02-24T21:36:47.995Z,4.40
2023-02-24T21:39:16.065Z,4.50
2023-02-24T21:41:44.784Z,4.50
2023-02-24T21:44:14.800Z,4.50
2023-02-24T21:46:45.542Z,4.40
2023-02-24T21:49:15.186Z,4.50
2023-02-24T21:51:43.560Z,4.60
2023-02-24T21:54:12.579Z,4.50
2023-02-24T21:56:40.900Z,4.40
2023-02-24T21:59:11.275Z,4.50
2023-02-24T22:01:41.447Z,4.50
2023-02-24T22:04:13.866Z,4.50
2023-02-24T22:06:44.640Z,4.50
2023-02-24T22:09:14.602Z,4.60
2023-02-24T22:11:42.887Z,4.60
2023-02-24T22:14:12.488Z,4.70
2023-02-24T22:16:40.863Z,4.60
2023-02-24T22:19:10.868Z,4.60
2023-02-24T22:21:42.349Z,4.60
2023-02-24T22:24:15.719Z,4.50
2023-02-24T22:26:44.731Z,4.50
2023-02-24T22:29:13.396Z,4.50
2023-02-24T22:31:43.816Z,4.50
2023-02-24T22:34:14.368Z,4.50
2023-02-24T22:36:42.638Z,4.50
2023-02-24T22:39:12.878Z,4.50
2023-02-24T22:41:41.044Z,4.50
2023-02-24T22:44:11.252Z,4.30
2023-02-24T22:46:41.081Z,4.40
2023-02-24T22:49:09.618Z,4.40
2023-02-24T22:51:39.396Z,4.40
2023-02-24T22:54:07.847Z,4.50
2023-02-24T22:56:38.006Z,4.50
2023-02-24T22:59:06.361Z,4.50
2023-02-24T23:01:36.088Z,4.50
2023-02-24T23:04:06.565Z,4.40
2023-02-24T23:06:35.756Z,4.50
2023-02-24T23:09:06.432Z,4.50
2023-02-24T23:11:37.356Z,4.40
2023-02-24T23:14:10.215Z,4.40
2023-02-24T23:16:39.229Z,4.30
2023-02-24T23:19:10.703Z,4.40
2023-02-24T23:21:40.557Z,4.40
2023-02-24T23:24:12.483Z,4.40
2023-02-24T23:26:43.102Z,4.30
2023-02-24T23:29:12.685Z,4.30
2023-02-24T23:31:42.366Z,4.20
2023-02-24T23:34:12.071Z,4.20
2023-02-24T23:36:43.544Z,4.20
2023-02-24T23:39:15.357Z,4.20
2023-02-24T23:41:43.470Z,4.20
2023-02-24T23:44:12.461Z,4.20
2023-02-24T23:46:41.859Z,4.20
2023-02-24T23:49:10.324Z,4.20
2023-02-24T23:51:48.005Z,4.20
2023-02-24T23:54:19.569Z,4.20
2023-02-24T23:56:48.057Z,4.10
2023-02-24T23:59:16.442Z,4.20
